VJC280 VVTS-VVCI
Flight info
| Callsign | VJC280 |
|---|---|
| Flight time | 1h 42m |
| Altitude | 39000 |
| Route | PATMA Q2 BUVAN Q4 MAREL |
| Aircraft | B738/M-SDE2E3FGHIRWXY/LB1 |
Departure
| Time | 2026-05-06 08:13 |
|---|---|
| Airport | Tan Son Nhat International Airport (VVTS) |
Arrival
| Time | 2026-05-06 09:56 |
|---|---|
| Airport | Cat Bi International Airport (VVCI) |
| Time | Latitude | Longitude | Altitude | Speed | Heading |
|---|---|---|---|---|---|
| 2026-05-06 07:53 | 10.81417 | 106.65361 | 37 ft | 0 kts | 340° |
| 2026-05-06 08:00 | 10.81416 | 106.65361 | 37 ft | 1 kts | 340° |
| 2026-05-06 08:01 | 10.81393 | 106.65369 | 36 ft | 4 kts | 351° |
| 2026-05-06 08:01 | 10.81367 | 106.65369 | 34 ft | 4 kts | 14° |
| 2026-05-06 08:01 | 10.81345 | 106.65358 | 33 ft | 3 kts | 63° |
| 2026-05-06 08:01 | 10.81343 | 106.65354 | 35 ft | 0 kts | 69° |
| 2026-05-06 08:05 | 10.81349 | 106.65370 | 35 ft | 3 kts | 69° |
| 2026-05-06 08:06 | 10.81356 | 106.65388 | 36 ft | 5 kts | 70° |
| 2026-05-06 08:06 | 10.81370 | 106.65428 | 37 ft | 7 kts | 69° |
| 2026-05-06 08:06 | 10.81391 | 106.65481 | 35 ft | 9 kts | 69° |
| 2026-05-06 08:06 | 10.81415 | 106.65546 | 37 ft | 11 kts | 69° |
| 2026-05-06 08:07 | 10.81443 | 106.65621 | 37 ft | 12 kts | 69° |
| 2026-05-06 08:07 | 10.81475 | 106.65704 | 35 ft | 12 kts | 69° |
| 2026-05-06 08:07 | 10.81503 | 106.65774 | 37 ft | 10 kts | 60° |
| 2026-05-06 08:07 | 10.81569 | 106.65796 | 37 ft | 10 kts | 5° |
| 2026-05-06 08:08 | 10.81643 | 106.65802 | 37 ft | 11 kts | 5° |
| 2026-05-06 08:08 | 10.81734 | 106.65793 | 34 ft | 13 kts | 8° |
| 2026-05-06 08:08 | 10.81781 | 106.65860 | 34 ft | 12 kts | 69° |
| 2026-05-06 08:08 | 10.81811 | 106.65939 | 35 ft | 12 kts | 69° |
| 2026-05-06 08:09 | 10.81841 | 106.66018 | 36 ft | 13 kts | 69° |
| 2026-05-06 08:09 | 10.81876 | 106.66111 | 36 ft | 15 kts | 69° |
| 2026-05-06 08:09 | 10.81915 | 106.66216 | 36 ft | 17 kts | 69° |
| 2026-05-06 08:09 | 10.81958 | 106.66330 | 37 ft | 18 kts | 69° |
| 2026-05-06 08:10 | 10.82007 | 106.66459 | 34 ft | 21 kts | 69° |
| 2026-05-06 08:10 | 10.82065 | 106.66611 | 34 ft | 24 kts | 69° |
| 2026-05-06 08:10 | 10.82119 | 106.66755 | 32 ft | 19 kts | 69° |
| 2026-05-06 08:10 | 10.82160 | 106.66864 | 31 ft | 15 kts | 69° |
| 2026-05-06 08:11 | 10.82198 | 106.66966 | 34 ft | 13 kts | 69° |
| 2026-05-06 08:11 | 10.82236 | 106.67013 | 36 ft | 9 kts | 17° |
| 2026-05-06 08:11 | 10.82299 | 106.66993 | 35 ft | 10 kts | 338° |
| 2026-05-06 08:11 | 10.82348 | 106.66946 | 35 ft | 7 kts | 311° |
| 2026-05-06 08:12 | 10.82351 | 106.66899 | 35 ft | 6 kts | 247° |
| 2026-05-06 08:12 | 10.82342 | 106.66877 | 33 ft | 14 kts | 248° |
| 2026-05-06 08:12 | 10.82235 | 106.66593 | 32 ft | 77 kts | 249° |
| 2026-05-06 08:12 | 10.81970 | 106.65895 | 40 ft | 131 kts | 249° |
| 2026-05-06 08:13 | 10.81588 | 106.64884 | 71 ft | 170 kts | 249° |
| 2026-05-06 08:13 | 10.81175 | 106.63768 | 702 ft | 168 kts | 248° |
| 2026-05-06 08:13 | 10.80752 | 106.62650 | 1303 ft | 170 kts | 248° |
| 2026-05-06 08:13 | 10.80322 | 106.61524 | 1880 ft | 173 kts | 247° |
| 2026-05-06 08:14 | 10.79858 | 106.60313 | 2111 ft | 195 kts | 248° |
| 2026-05-06 08:14 | 10.79338 | 106.58955 | 2387 ft | 218 kts | 248° |
| 2026-05-06 08:14 | 10.78773 | 106.57473 | 2765 ft | 237 kts | 249° |
| 2026-05-06 08:14 | 10.78383 | 106.55765 | 3110 ft | 261 kts | 271° |
| 2026-05-06 08:15 | 10.78816 | 106.53942 | 3700 ft | 272 kts | 299° |
| 2026-05-06 08:15 | 10.80059 | 106.52491 | 4454 ft | 276 kts | 327° |
| 2026-05-06 08:15 | 10.81800 | 106.51665 | 5250 ft | 278 kts | 341° |
| 2026-05-06 08:15 | 10.83619 | 106.50961 | 6099 ft | 281 kts | 341° |
| 2026-05-06 08:16 | 10.85466 | 106.50254 | 6887 ft | 285 kts | 341° |
| 2026-05-06 08:16 | 10.87343 | 106.49549 | 7650 ft | 288 kts | 344° |
| 2026-05-06 08:16 | 10.89323 | 106.49246 | 8391 ft | 290 kts | 3° |
| 2026-05-06 08:16 | 10.91281 | 106.49594 | 9165 ft | 291 kts | 22° |
| 2026-05-06 08:17 | 10.93055 | 106.50565 | 9948 ft | 292 kts | 39° |
| 2026-05-06 08:17 | 10.94520 | 106.52088 | 10195 ft | 312 kts | 53° |
| 2026-05-06 08:17 | 10.95900 | 106.53900 | 10330 ft | 335 kts | 53° |
| 2026-05-06 08:17 | 10.97361 | 106.55830 | 10572 ft | 351 kts | 53° |
| 2026-05-06 08:18 | 10.98865 | 106.57812 | 10932 ft | 355 kts | 53° |
| 2026-05-06 08:18 | 11.00384 | 106.59799 | 11406 ft | 357 kts | 53° |
| 2026-05-06 08:18 | 11.01922 | 106.61803 | 11889 ft | 361 kts | 52° |
| 2026-05-06 08:18 | 11.03472 | 106.63826 | 12417 ft | 365 kts | 53° |
| 2026-05-06 08:19 | 11.05040 | 106.65871 | 12994 ft | 368 kts | 52° |
| 2026-05-06 08:19 | 11.06623 | 106.67932 | 13566 ft | 371 kts | 52° |
| 2026-05-06 08:19 | 11.08221 | 106.70015 | 14075 ft | 374 kts | 52° |
| 2026-05-06 08:19 | 11.09826 | 106.72110 | 14596 ft | 377 kts | 53° |
| 2026-05-06 08:20 | 11.11444 | 106.74222 | 15071 ft | 380 kts | 53° |
| 2026-05-06 08:20 | 11.13075 | 106.76351 | 15582 ft | 383 kts | 53° |
| 2026-05-06 08:20 | 11.14719 | 106.78497 | 16075 ft | 386 kts | 52° |
| 2026-05-06 08:20 | 11.16378 | 106.80663 | 16563 ft | 389 kts | 53° |
| 2026-05-06 08:21 | 11.18049 | 106.82847 | 17074 ft | 392 kts | 52° |
| 2026-05-06 08:21 | 11.19735 | 106.85052 | 17555 ft | 396 kts | 53° |
| 2026-05-06 08:21 | 11.21414 | 106.87248 | 18069 ft | 399 kts | 52° |
| 2026-05-06 08:21 | 11.23133 | 106.89488 | 18495 ft | 403 kts | 52° |
| 2026-05-06 08:22 | 11.24864 | 106.91744 | 18949 ft | 406 kts | 53° |
| 2026-05-06 08:22 | 11.26608 | 106.94019 | 19406 ft | 409 kts | 53° |
| 2026-05-06 08:22 | 11.28363 | 106.96314 | 19841 ft | 412 kts | 52° |
| 2026-05-06 08:22 | 11.30132 | 106.98627 | 20299 ft | 414 kts | 52° |
| 2026-05-06 08:23 | 11.31911 | 107.00953 | 20707 ft | 418 kts | 53° |
| 2026-05-06 08:23 | 11.33699 | 107.03294 | 21119 ft | 420 kts | 53° |
| 2026-05-06 08:23 | 11.35578 | 107.05584 | 21517 ft | 424 kts | 46° |
| 2026-05-06 08:23 | 11.37817 | 107.07562 | 21889 ft | 428 kts | 37° |
| 2026-05-06 08:24 | 11.40218 | 107.09381 | 22260 ft | 430 kts | 37° |
| 2026-05-06 08:24 | 11.42627 | 107.11212 | 22625 ft | 433 kts | 37° |
| 2026-05-06 08:24 | 11.45055 | 107.13062 | 22975 ft | 436 kts | 38° |
| 2026-05-06 08:24 | 11.47489 | 107.14919 | 23317 ft | 438 kts | 38° |
| 2026-05-06 08:25 | 11.49936 | 107.16789 | 23610 ft | 440 kts | 38° |
| 2026-05-06 08:25 | 11.52392 | 107.18666 | 23893 ft | 443 kts | 38° |
| 2026-05-06 08:25 | 11.54831 | 107.20529 | 24160 ft | 445 kts | 38° |
| 2026-05-06 08:25 | 11.57315 | 107.22428 | 24459 ft | 447 kts | 38° |
| 2026-05-06 08:26 | 11.59806 | 107.24335 | 24732 ft | 449 kts | 38° |
| 2026-05-06 08:26 | 11.62304 | 107.26250 | 25005 ft | 450 kts | 38° |
| 2026-05-06 08:26 | 11.64821 | 107.28179 | 25281 ft | 452 kts | 38° |
| 2026-05-06 08:26 | 11.67342 | 107.30106 | 25543 ft | 454 kts | 38° |
| 2026-05-06 08:27 | 11.69876 | 107.32041 | 25805 ft | 456 kts | 38° |
| 2026-05-06 08:27 | 11.72417 | 107.33985 | 26067 ft | 457 kts | 38° |
| 2026-05-06 08:27 | 11.74966 | 107.35940 | 26325 ft | 459 kts | 38° |
| 2026-05-06 08:27 | 11.77525 | 107.37903 | 26570 ft | 461 kts | 38° |
| 2026-05-06 08:28 | 11.80092 | 107.39870 | 26835 ft | 462 kts | 38° |
| 2026-05-06 08:28 | 11.82675 | 107.41845 | 27069 ft | 464 kts | 38° |
| 2026-05-06 08:28 | 11.85264 | 107.43825 | 27311 ft | 466 kts | 37° |
| 2026-05-06 08:28 | 11.87831 | 107.45790 | 27554 ft | 468 kts | 38° |
| 2026-05-06 08:29 | 11.90440 | 107.47790 | 27804 ft | 469 kts | 38° |
| 2026-05-06 08:29 | 11.93052 | 107.49794 | 28051 ft | 471 kts | 38° |
| 2026-05-06 08:29 | 11.95677 | 107.51811 | 28291 ft | 472 kts | 38° |
| 2026-05-06 08:29 | 11.98301 | 107.53829 | 28640 ft | 471 kts | 38° |
| 2026-05-06 08:30 | 12.00916 | 107.55839 | 29006 ft | 471 kts | 38° |
| 2026-05-06 08:30 | 12.03542 | 107.57857 | 29411 ft | 470 kts | 38° |
| 2026-05-06 08:30 | 12.06156 | 107.59865 | 29774 ft | 469 kts | 38° |
| 2026-05-06 08:30 | 12.08766 | 107.61869 | 30117 ft | 469 kts | 38° |
| 2026-05-06 08:31 | 12.11374 | 107.63871 | 30429 ft | 468 kts | 37° |
| 2026-05-06 08:31 | 12.13976 | 107.65867 | 30724 ft | 468 kts | 38° |
| 2026-05-06 08:31 | 12.16585 | 107.67868 | 31030 ft | 468 kts | 37° |
| 2026-05-06 08:31 | 12.19187 | 107.69866 | 31342 ft | 468 kts | 37° |
| 2026-05-06 08:32 | 12.21790 | 107.71867 | 31664 ft | 467 kts | 37° |
| 2026-05-06 08:32 | 12.24387 | 107.73867 | 32006 ft | 467 kts | 37° |
| 2026-05-06 08:32 | 12.26976 | 107.75861 | 32364 ft | 465 kts | 37° |
| 2026-05-06 08:32 | 12.29571 | 107.77830 | 32753 ft | 464 kts | 33° |
| 2026-05-06 08:33 | 12.32352 | 107.79431 | 33100 ft | 463 kts | 24° |
| 2026-05-06 08:33 | 12.35380 | 107.80530 | 33455 ft | 462 kts | 14° |
| 2026-05-06 08:33 | 12.38544 | 107.81073 | 33821 ft | 461 kts | 3° |
| 2026-05-06 08:33 | 12.41745 | 107.81161 | 34146 ft | 460 kts | 0° |
| 2026-05-06 08:34 | 12.44948 | 107.81211 | 34453 ft | 459 kts | 0° |
| 2026-05-06 08:34 | 12.51323 | 107.81331 | 35076 ft | 458 kts | 0° |
| 2026-05-06 08:34 | 12.54507 | 107.81398 | 35380 ft | 457 kts | 359° |
| 2026-05-06 08:35 | 12.57684 | 107.81466 | 35677 ft | 456 kts | 0° |
| 2026-05-06 08:35 | 12.60857 | 107.81535 | 35968 ft | 455 kts | 359° |
| 2026-05-06 08:35 | 12.64021 | 107.81602 | 36266 ft | 454 kts | 359° |
| 2026-05-06 08:35 | 12.67174 | 107.81668 | 36557 ft | 453 kts | 360° |
| 2026-05-06 08:36 | 12.70327 | 107.81729 | 36828 ft | 452 kts | 359° |
| 2026-05-06 08:36 | 12.73475 | 107.81788 | 37087 ft | 452 kts | 359° |
| 2026-05-06 08:36 | 12.76615 | 107.81849 | 37351 ft | 451 kts | 359° |
| 2026-05-06 08:36 | 12.79720 | 107.81910 | 37605 ft | 451 kts | 359° |
| 2026-05-06 08:37 | 12.82855 | 107.81972 | 37864 ft | 450 kts | 359° |
| 2026-05-06 08:37 | 12.85984 | 107.82034 | 38115 ft | 450 kts | 359° |
| 2026-05-06 08:37 | 12.89115 | 107.82096 | 38364 ft | 449 kts | 359° |
| 2026-05-06 08:37 | 12.92235 | 107.82157 | 38607 ft | 448 kts | 359° |
| 2026-05-06 08:38 | 12.95353 | 107.82216 | 38773 ft | 448 kts | 359° |
| 2026-05-06 08:38 | 13.01582 | 107.82338 | 38832 ft | 446 kts | 359° |
| 2026-05-06 08:39 | 13.07789 | 107.82467 | 38835 ft | 446 kts | 359° |
| 2026-05-06 08:39 | 13.13966 | 107.82586 | 38832 ft | 446 kts | 359° |
| 2026-05-06 08:40 | 13.20172 | 107.82708 | 38824 ft | 446 kts | 359° |
| 2026-05-06 08:40 | 13.26366 | 107.82834 | 38831 ft | 445 kts | 360° |
| 2026-05-06 08:41 | 13.32545 | 107.82956 | 38831 ft | 443 kts | 359° |
| 2026-05-06 08:41 | 13.38711 | 107.83089 | 38834 ft | 443 kts | 359° |
| 2026-05-06 08:42 | 13.44844 | 107.83216 | 38838 ft | 443 kts | 359° |
| 2026-05-06 08:42 | 13.51012 | 107.83335 | 38841 ft | 443 kts | 359° |
| 2026-05-06 08:43 | 13.57177 | 107.83463 | 38856 ft | 443 kts | 359° |
| 2026-05-06 08:43 | 13.63320 | 107.83597 | 38853 ft | 443 kts | 359° |
| 2026-05-06 08:44 | 13.69494 | 107.83725 | 38846 ft | 443 kts | 359° |
| 2026-05-06 08:44 | 13.75666 | 107.83854 | 38857 ft | 444 kts | 359° |
| 2026-05-06 08:45 | 13.81839 | 107.83978 | 38861 ft | 444 kts | 359° |
| 2026-05-06 08:45 | 13.88014 | 107.84109 | 38867 ft | 444 kts | 359° |
| 2026-05-06 08:46 | 13.94196 | 107.84241 | 38871 ft | 444 kts | 359° |
| 2026-05-06 08:46 | 14.00358 | 107.84375 | 38874 ft | 444 kts | 359° |
| 2026-05-06 08:47 | 14.06551 | 107.84416 | 38873 ft | 444 kts | 358° |
| 2026-05-06 08:47 | 14.12742 | 107.84385 | 38877 ft | 445 kts | 358° |
| 2026-05-06 08:48 | 14.18930 | 107.84361 | 38879 ft | 445 kts | 358° |
| 2026-05-06 08:48 | 14.25085 | 107.84353 | 38895 ft | 445 kts | 358° |
| 2026-05-06 08:49 | 14.31279 | 107.84361 | 38882 ft | 446 kts | 358° |
| 2026-05-06 08:49 | 14.37490 | 107.84365 | 38879 ft | 446 kts | 358° |
| 2026-05-06 08:50 | 14.42655 | 107.84365 | 38887 ft | 447 kts | 358° |
| 2026-05-06 08:50 | 14.48874 | 107.84360 | 38886 ft | 447 kts | 358° |
| 2026-05-06 08:51 | 14.55101 | 107.84363 | 38897 ft | 447 kts | 358° |
| 2026-05-06 08:51 | 14.61322 | 107.84365 | 38899 ft | 447 kts | 358° |
| 2026-05-06 08:52 | 14.67558 | 107.84367 | 38916 ft | 447 kts | 358° |
| 2026-05-06 08:52 | 14.73776 | 107.84364 | 38916 ft | 447 kts | 358° |
| 2026-05-06 08:53 | 14.80007 | 107.84359 | 38934 ft | 447 kts | 358° |
| 2026-05-06 08:53 | 14.86239 | 107.84358 | 38935 ft | 448 kts | 358° |
| 2026-05-06 08:54 | 14.92432 | 107.84440 | 38944 ft | 448 kts | 0° |
| 2026-05-06 08:54 | 14.98670 | 107.84711 | 38947 ft | 448 kts | 1° |
| 2026-05-06 08:55 | 15.04907 | 107.85009 | 38945 ft | 448 kts | 0° |
| 2026-05-06 08:55 | 15.11150 | 107.85264 | 38951 ft | 448 kts | 0° |
| 2026-05-06 08:56 | 15.17379 | 107.85493 | 38953 ft | 448 kts | 0° |
| 2026-05-06 08:56 | 15.23607 | 107.85716 | 38940 ft | 448 kts | 0° |
| 2026-05-06 08:57 | 15.29842 | 107.85950 | 38936 ft | 448 kts | 0° |
| 2026-05-06 08:57 | 15.36086 | 107.86193 | 38916 ft | 449 kts | 0° |
| 2026-05-06 08:58 | 15.42292 | 107.86431 | 38914 ft | 449 kts | 0° |
| 2026-05-06 08:58 | 15.48541 | 107.86665 | 38892 ft | 449 kts | 0° |
| 2026-05-06 08:59 | 15.54792 | 107.86903 | 38887 ft | 449 kts | 0° |
| 2026-05-06 08:59 | 15.61041 | 107.87141 | 38884 ft | 449 kts | 360° |
| 2026-05-06 09:00 | 15.67288 | 107.87384 | 38888 ft | 449 kts | 360° |
| 2026-05-06 09:00 | 15.73538 | 107.87620 | 38892 ft | 449 kts | 360° |
| 2026-05-06 09:01 | 15.79747 | 107.87855 | 38890 ft | 449 kts | 359° |
| 2026-05-06 09:01 | 15.85987 | 107.88091 | 38888 ft | 448 kts | 360° |
| 2026-05-06 09:02 | 15.92219 | 107.88327 | 38883 ft | 448 kts | 358° |
| 2026-05-06 09:02 | 15.98325 | 107.87433 | 38883 ft | 442 kts | 339° |
| 2026-05-06 09:03 | 16.03926 | 107.84860 | 38872 ft | 440 kts | 333° |
| 2026-05-06 09:03 | 16.09434 | 107.82145 | 38874 ft | 440 kts | 333° |
| 2026-05-06 09:04 | 16.15017 | 107.79404 | 38857 ft | 441 kts | 333° |
| 2026-05-06 09:04 | 16.20537 | 107.76694 | 38852 ft | 441 kts | 333° |
| 2026-05-06 09:05 | 16.26093 | 107.73963 | 38852 ft | 441 kts | 333° |
| 2026-05-06 09:05 | 16.31657 | 107.71219 | 38857 ft | 442 kts | 333° |
| 2026-05-06 09:06 | 16.37216 | 107.68477 | 38859 ft | 441 kts | 333° |
| 2026-05-06 09:06 | 16.42716 | 107.65754 | 38865 ft | 440 kts | 333° |
| 2026-05-06 09:07 | 16.48245 | 107.63026 | 38858 ft | 440 kts | 333° |
| 2026-05-06 09:07 | 16.53779 | 107.60303 | 38857 ft | 440 kts | 333° |
| 2026-05-06 09:08 | 16.59315 | 107.57588 | 38844 ft | 439 kts | 333° |
| 2026-05-06 09:08 | 16.64853 | 107.54871 | 38856 ft | 439 kts | 333° |
| 2026-05-06 09:09 | 16.70378 | 107.52152 | 38857 ft | 438 kts | 333° |
| 2026-05-06 09:09 | 16.75888 | 107.49442 | 38861 ft | 438 kts | 333° |
| 2026-05-06 09:10 | 16.81398 | 107.46731 | 38849 ft | 437 kts | 333° |
| 2026-05-06 09:10 | 16.86877 | 107.44036 | 38845 ft | 437 kts | 333° |
| 2026-05-06 09:11 | 16.92375 | 107.41330 | 38849 ft | 437 kts | 333° |
| 2026-05-06 09:11 | 16.97879 | 107.38619 | 38845 ft | 437 kts | 333° |
| 2026-05-06 09:12 | 17.03384 | 107.35907 | 38852 ft | 437 kts | 333° |
| 2026-05-06 09:12 | 17.08843 | 107.33171 | 38850 ft | 437 kts | 333° |
| 2026-05-06 09:13 | 17.14319 | 107.30391 | 38853 ft | 437 kts | 333° |
| 2026-05-06 09:13 | 17.19794 | 107.27622 | 38853 ft | 437 kts | 333° |
| 2026-05-06 09:14 | 17.25276 | 107.24865 | 38853 ft | 437 kts | 333° |
| 2026-05-06 09:14 | 17.30760 | 107.22105 | 38851 ft | 437 kts | 333° |
| 2026-05-06 09:15 | 17.36243 | 107.19339 | 38854 ft | 437 kts | 333° |
| 2026-05-06 09:15 | 17.41723 | 107.16570 | 38855 ft | 437 kts | 333° |
| 2026-05-06 09:16 | 17.47201 | 107.13795 | 38855 ft | 437 kts | 333° |
| 2026-05-06 09:16 | 17.52681 | 107.11020 | 38855 ft | 437 kts | 333° |
| 2026-05-06 09:17 | 17.58160 | 107.08250 | 38847 ft | 437 kts | 333° |
| 2026-05-06 09:17 | 17.63610 | 107.05493 | 38848 ft | 437 kts | 333° |
| 2026-05-06 09:18 | 17.69098 | 107.02716 | 38862 ft | 438 kts | 333° |
| 2026-05-06 09:18 | 17.74579 | 106.99937 | 38859 ft | 438 kts | 332° |
| 2026-05-06 09:19 | 17.80064 | 106.97145 | 38855 ft | 438 kts | 332° |
| 2026-05-06 09:19 | 17.85559 | 106.94355 | 38851 ft | 438 kts | 333° |
| 2026-05-06 09:20 | 17.91062 | 106.91568 | 38855 ft | 439 kts | 333° |
| 2026-05-06 09:20 | 17.96545 | 106.88812 | 38853 ft | 439 kts | 333° |
| 2026-05-06 09:21 | 18.02053 | 106.86042 | 38854 ft | 439 kts | 333° |
| 2026-05-06 09:21 | 18.07565 | 106.83258 | 38854 ft | 439 kts | 333° |
| 2026-05-06 09:22 | 18.12813 | 106.80603 | 38854 ft | 439 kts | 333° |
| 2026-05-06 09:22 | 18.18324 | 106.77822 | 38851 ft | 439 kts | 333° |
| 2026-05-06 09:23 | 18.23837 | 106.75038 | 38854 ft | 439 kts | 333° |
| 2026-05-06 09:23 | 18.29338 | 106.72249 | 38851 ft | 439 kts | 333° |
| 2026-05-06 09:24 | 18.34848 | 106.69458 | 38845 ft | 439 kts | 333° |
| 2026-05-06 09:24 | 18.40359 | 106.66670 | 38848 ft | 440 kts | 333° |
| 2026-05-06 09:25 | 18.45878 | 106.63878 | 38846 ft | 441 kts | 332° |
| 2026-05-06 09:25 | 18.51380 | 106.61100 | 38843 ft | 442 kts | 335° |
| 2026-05-06 09:26 | 18.57358 | 106.59567 | 38837 ft | 446 kts | 355° |
| 2026-05-06 09:26 | 18.60470 | 106.59663 | 38839 ft | 449 kts | 6° |
| 2026-05-06 09:26 | 18.63568 | 106.60146 | 38839 ft | 450 kts | 6° |
| 2026-05-06 09:27 | 18.69732 | 106.61115 | 38834 ft | 450 kts | 6° |
| 2026-05-06 09:27 | 18.75931 | 106.62082 | 38843 ft | 450 kts | 6° |
| 2026-05-06 09:28 | 18.82129 | 106.63042 | 38849 ft | 450 kts | 6° |
| 2026-05-06 09:28 | 18.88334 | 106.63995 | 38849 ft | 450 kts | 6° |
| 2026-05-06 09:29 | 18.94534 | 106.64954 | 38849 ft | 450 kts | 6° |
| 2026-05-06 09:29 | 19.00729 | 106.65920 | 38525 ft | 449 kts | 6° |
| 2026-05-06 09:29 | 19.03810 | 106.66399 | 38094 ft | 446 kts | 6° |
| 2026-05-06 09:30 | 19.06874 | 106.66875 | 37568 ft | 445 kts | 6° |
| 2026-05-06 09:30 | 19.09896 | 106.67345 | 37013 ft | 444 kts | 6° |
| 2026-05-06 09:30 | 19.12957 | 106.67821 | 36361 ft | 446 kts | 6° |
| 2026-05-06 09:30 | 19.16033 | 106.68301 | 35669 ft | 449 kts | 6° |
| 2026-05-06 09:31 | 19.19145 | 106.68787 | 34901 ft | 453 kts | 6° |
| 2026-05-06 09:31 | 19.22280 | 106.69263 | 34120 ft | 457 kts | 3° |
| 2026-05-06 09:31 | 19.25468 | 106.69436 | 33181 ft | 460 kts | 359° |
| 2026-05-06 09:31 | 19.28690 | 106.69511 | 32261 ft | 464 kts | 359° |
| 2026-05-06 09:32 | 19.31943 | 106.69577 | 31327 ft | 468 kts | 359° |
| 2026-05-06 09:32 | 19.35214 | 106.69638 | 30342 ft | 473 kts | 359° |
| 2026-05-06 09:32 | 19.38533 | 106.69701 | 29162 ft | 479 kts | 359° |
| 2026-05-06 09:32 | 19.41832 | 106.69763 | 28041 ft | 481 kts | 359° |
| 2026-05-06 09:33 | 19.45190 | 106.69830 | 26872 ft | 483 kts | 359° |
| 2026-05-06 09:33 | 19.48551 | 106.69901 | 26063 ft | 479 kts | 359° |
| 2026-05-06 09:33 | 19.51857 | 106.69974 | 25352 ft | 472 kts | 359° |
| 2026-05-06 09:33 | 19.55137 | 106.70048 | 24596 ft | 467 kts | 359° |
| 2026-05-06 09:34 | 19.58389 | 106.70119 | 23839 ft | 463 kts | 359° |
| 2026-05-06 09:34 | 19.61558 | 106.70188 | 23052 ft | 460 kts | 359° |
| 2026-05-06 09:34 | 19.64733 | 106.70258 | 22297 ft | 454 kts | 359° |
| 2026-05-06 09:34 | 19.67881 | 106.70324 | 21581 ft | 447 kts | 359° |
| 2026-05-06 09:35 | 19.70974 | 106.70386 | 20872 ft | 442 kts | 359° |
| 2026-05-06 09:35 | 19.74029 | 106.70450 | 20182 ft | 436 kts | 359° |
| 2026-05-06 09:35 | 19.77056 | 106.70517 | 19515 ft | 432 kts | 359° |
| 2026-05-06 09:35 | 19.80044 | 106.70584 | 18872 ft | 427 kts | 359° |
| 2026-05-06 09:36 | 19.82971 | 106.70648 | 18266 ft | 423 kts | 359° |
| 2026-05-06 09:36 | 19.85905 | 106.70709 | 17603 ft | 420 kts | 359° |
| 2026-05-06 09:36 | 19.88814 | 106.70767 | 17017 ft | 415 kts | 359° |
| 2026-05-06 09:36 | 19.91691 | 106.70825 | 16425 ft | 411 kts | 359° |
| 2026-05-06 09:37 | 19.93619 | 106.70866 | 16034 ft | 409 kts | 359° |
| 2026-05-06 09:37 | 19.96413 | 106.70926 | 15437 ft | 406 kts | 359° |
| 2026-05-06 09:37 | 19.99230 | 106.70988 | 14840 ft | 403 kts | 359° |
| 2026-05-06 09:37 | 20.02022 | 106.71049 | 14215 ft | 400 kts | 359° |
| 2026-05-06 09:38 | 20.04801 | 106.71105 | 13577 ft | 398 kts | 359° |
| 2026-05-06 09:38 | 20.07560 | 106.71157 | 12887 ft | 395 kts | 359° |
| 2026-05-06 09:38 | 20.10288 | 106.71210 | 12242 ft | 390 kts | 359° |
| 2026-05-06 09:38 | 20.12984 | 106.71265 | 11597 ft | 386 kts | 359° |
| 2026-05-06 09:39 | 20.15657 | 106.71322 | 10952 ft | 382 kts | 359° |
| 2026-05-06 09:39 | 20.18289 | 106.71382 | 10645 ft | 369 kts | 359° |
| 2026-05-06 09:39 | 20.20800 | 106.71393 | 10521 ft | 351 kts | 353° |
| 2026-05-06 09:39 | 20.23143 | 106.70988 | 10406 ft | 333 kts | 342° |
| 2026-05-06 09:40 | 20.25316 | 106.70288 | 10287 ft | 319 kts | 340° |
| 2026-05-06 09:40 | 20.27402 | 106.69609 | 10176 ft | 308 kts | 340° |
| 2026-05-06 09:40 | 20.31382 | 106.68321 | 9869 ft | 291 kts | 340° |
| 2026-05-06 09:41 | 20.33323 | 106.67692 | 9752 ft | 293 kts | 339° |
| 2026-05-06 09:41 | 20.35262 | 106.67062 | 9324 ft | 295 kts | 340° |
| 2026-05-06 09:41 | 20.37225 | 106.66426 | 8918 ft | 295 kts | 340° |
| 2026-05-06 09:41 | 20.39185 | 106.65792 | 8546 ft | 295 kts | 340° |
| 2026-05-06 09:42 | 20.41139 | 106.65163 | 8269 ft | 291 kts | 340° |
| 2026-05-06 09:42 | 20.43070 | 106.64541 | 7938 ft | 290 kts | 340° |
| 2026-05-06 09:42 | 20.44999 | 106.63917 | 7591 ft | 289 kts | 340° |
| 2026-05-06 09:42 | 20.46919 | 106.63293 | 7255 ft | 288 kts | 340° |
| 2026-05-06 09:43 | 20.48831 | 106.62673 | 6937 ft | 286 kts | 340° |
| 2026-05-06 09:43 | 20.50728 | 106.62057 | 6625 ft | 284 kts | 339° |
| 2026-05-06 09:43 | 20.52620 | 106.61440 | 6309 ft | 284 kts | 340° |
| 2026-05-06 09:43 | 20.54503 | 106.60829 | 5985 ft | 282 kts | 339° |
| 2026-05-06 09:44 | 20.56356 | 106.60228 | 5672 ft | 281 kts | 340° |
| 2026-05-06 09:44 | 20.58227 | 106.59621 | 5295 ft | 282 kts | 341° |
| 2026-05-06 09:44 | 20.60120 | 106.59006 | 4868 ft | 284 kts | 341° |
| 2026-05-06 09:44 | 20.61969 | 106.58408 | 4575 ft | 271 kts | 341° |
| 2026-05-06 09:45 | 20.63727 | 106.57843 | 4310 ft | 258 kts | 341° |
| 2026-05-06 09:45 | 20.65398 | 106.57303 | 4066 ft | 244 kts | 342° |
| 2026-05-06 09:45 | 20.66984 | 106.56791 | 3827 ft | 234 kts | 341° |
| 2026-05-06 09:45 | 20.68539 | 106.56285 | 3601 ft | 230 kts | 342° |
| 2026-05-06 09:46 | 20.70074 | 106.55786 | 3370 ft | 232 kts | 342° |
| 2026-05-06 09:46 | 20.71603 | 106.55288 | 3140 ft | 227 kts | 342° |
| 2026-05-06 09:46 | 20.73145 | 106.54985 | 2900 ft | 224 kts | 1° |
| 2026-05-06 09:46 | 20.73734 | 106.55016 | 2818 ft | 223 kts | 8° |
| 2026-05-06 09:51 | 20.75155 | 106.55491 | 2663 ft | 211 kts | 32° |
| 2026-05-06 09:52 | 20.76326 | 106.56370 | 2414 ft | 201 kts | 50° |
| 2026-05-06 09:52 | 20.77149 | 106.57509 | 2245 ft | 186 kts | 67° |
| 2026-05-06 09:52 | 20.77609 | 106.58710 | 2136 ft | 169 kts | 78° |
| 2026-05-06 09:52 | 20.77970 | 106.59911 | 2034 ft | 168 kts | 79° |
| 2026-05-06 09:53 | 20.78325 | 106.61092 | 1939 ft | 168 kts | 78° |
| 2026-05-06 09:53 | 20.78681 | 106.62277 | 1905 ft | 169 kts | 78° |
| 2026-05-06 09:53 | 20.79042 | 106.63486 | 1818 ft | 172 kts | 76° |
| 2026-05-06 09:53 | 20.79417 | 106.64686 | 1534 ft | 168 kts | 76° |
| 2026-05-06 09:54 | 20.79784 | 106.65872 | 1120 ft | 168 kts | 78° |
| 2026-05-06 09:54 | 20.80127 | 106.67049 | 799 ft | 157 kts | 76° |
| 2026-05-06 09:54 | 20.80446 | 106.68105 | 620 ft | 144 kts | 77° |
| 2026-05-06 09:54 | 20.80724 | 106.69067 | 390 ft | 134 kts | 77° |
| 2026-05-06 09:55 | 20.81007 | 106.70026 | 225 ft | 137 kts | 76° |
| 2026-05-06 09:55 | 20.81302 | 106.70985 | 62 ft | 134 kts | 78° |
| 2026-05-06 09:55 | 20.81552 | 106.71862 | 24 ft | 102 kts | 71° |
| 2026-05-06 09:55 | 20.81720 | 106.72407 | 24 ft | 52 kts | 72° |
| 2026-05-06 09:56 | 20.81808 | 106.72702 | 26 ft | 33 kts | 72° |
| 2026-05-06 09:56 | 20.81892 | 106.72848 | 28 ft | 14 kts | 70° |
| 2026-05-06 09:56 | 20.81847 | 106.72838 | 26 ft | 13 kts | 256° |
| 2026-05-06 09:56 | 20.81818 | 106.72734 | 26 ft | 16 kts | 253° |
| 2026-05-06 09:57 | 20.81782 | 106.72614 | 26 ft | 18 kts | 252° |
| 2026-05-06 09:57 | 20.81741 | 106.72477 | 27 ft | 17 kts | 252° |
| 2026-05-06 09:57 | 20.81707 | 106.72362 | 24 ft | 13 kts | 252° |
| 2026-05-06 09:57 | 20.81751 | 106.72288 | 24 ft | 10 kts | 345° |
| 2026-05-06 09:58 | 20.81805 | 106.72271 | 24 ft | 7 kts | 343° |
| 2026-05-06 09:58 | 20.81853 | 106.72255 | 24 ft | 8 kts | 343° |
| 2026-05-06 09:58 | 20.81911 | 106.72235 | 25 ft | 10 kts | 342° |
| 2026-05-06 09:58 | 20.81965 | 106.72273 | 26 ft | 12 kts | 72° |
| 2026-05-06 09:59 | 20.81993 | 106.72368 | 25 ft | 15 kts | 72° |
| 2026-05-06 09:59 | 20.82020 | 106.72456 | 26 ft | 14 kts | 72° |
| 2026-05-06 09:59 | 20.82042 | 106.72532 | 25 ft | 9 kts | 72° |
| 2026-05-06 09:59 | 20.82061 | 106.72592 | 26 ft | 7 kts | 67° |
| 2026-05-06 10:00 | 20.82109 | 106.72593 | 26 ft | 8 kts | 341° |
| 2026-05-06 10:00 | 20.82144 | 106.72580 | 25 ft | 2 kts | 342° |
| 2026-05-06 10:00 | 20.82165 | 106.72573 | 25 ft | 2 kts | 342° |